createdAt,value
2023-02-09T00:03:09.333Z,2.50
2023-02-09T00:08:11.314Z,2.40
2023-02-09T00:13:25.104Z,2.40
2023-02-09T00:18:28.553Z,2.30
2023-02-09T00:23:31.625Z,2.30
2023-02-09T00:28:33.940Z,2.20
2023-02-09T00:33:36.460Z,2.20
2023-02-09T00:38:38.992Z,2.10
2023-02-09T00:43:41.297Z,2.10
2023-02-09T00:48:43.070Z,2.10
2023-02-09T00:53:46.050Z,2.00
2023-02-09T00:58:47.871Z,2.00
2023-02-09T01:03:49.647Z,2.00
2023-02-09T01:08:51.505Z,1.90
2023-02-09T01:13:56.038Z,1.90
2023-02-09T01:19:00.889Z,1.80
2023-02-09T01:24:04.364Z,1.70
2023-02-09T01:29:06.182Z,1.70
2023-02-09T01:34:08.235Z,1.60
2023-02-09T01:39:11.966Z,1.60
2023-02-09T01:44:16.848Z,1.60
2023-02-09T01:49:26.278Z,1.60
2023-02-09T01:55:02.263Z,1.50
2023-02-09T02:00:10.712Z,1.50
2023-02-09T02:05:20.226Z,1.40
2023-02-09T02:10:22.166Z,1.30
2023-02-09T02:15:42.855Z,1.30
2023-02-09T02:21:15.621Z,1.30
2023-02-09T02:26:23.583Z,1.30
2023-02-09T02:32:03.216Z,1.20
2023-02-09T02:37:37.713Z,1.20
2023-02-09T02:43:17.775Z,1.10
2023-02-09T02:48:52.942Z,1.10
2023-02-09T02:53:59.888Z,1.10
2023-02-09T02:59:04.843Z,1.00
2023-02-09T03:04:08.190Z,1.00
2023-02-09T03:09:10.176Z,1.00
2023-02-09T03:14:17.845Z,1.00
2023-02-09T03:19:31.597Z,1.00
2023-02-09T03:24:48.716Z,0.90
2023-02-09T03:29:55.061Z,0.80
2023-02-09T03:34:57.867Z,0.80
2023-02-09T03:39:59.671Z,0.80
2023-02-09T03:45:01.554Z,0.70
2023-02-09T03:50:06.733Z,0.60
2023-02-09T03:55:08.721Z,0.60
2023-02-09T04:00:11.373Z,0.60
2023-02-09T04:17:18.164Z,0.50
2023-02-09T04:22:20.025Z,0.50
2023-02-09T04:33:30.158Z,0.50
2023-02-09T04:44:28.072Z,0.50
2023-02-09T04:55:08.431Z,0.40
2023-02-09T05:00:11.154Z,0.40
2023-02-09T07:05:05.360Z,-0.50
2023-02-09T08:49:41.649Z,5.20
2023-02-09T09:00:25.347Z,6.50
2023-02-09T10:17:07.621Z,10.10
2023-02-09T10:22:52.387Z,10.70
2023-02-09T10:27:55.711Z,10.80
2023-02-09T10:33:20.550Z,11.00
2023-02-09T10:38:28.907Z,11.40
2023-02-09T10:43:36.033Z,11.60
2023-02-09T10:48:50.753Z,11.50
2023-02-09T11:12:35.169Z,11.10
2023-02-09T11:18:26.957Z,11.30
2023-02-09T11:29:41.899Z,11.80
2023-02-09T11:35:14.615Z,11.80
2023-02-09T11:40:44.909Z,12.30
2023-02-09T11:46:02.768Z,12.20
2023-02-09T11:51:31.755Z,12.00
2023-02-09T11:56:42.798Z,11.60
2023-02-09T12:15:12.952Z,12.30
2023-02-09T12:20:31.028Z,12.00
2023-02-09T12:25:53.256Z,11.80
2023-02-09T12:31:00.769Z,11.50
2023-02-09T12:36:18.288Z,11.70
2023-02-09T12:41:35.086Z,11.60
2023-02-09T12:46:44.340Z,11.50
2023-02-09T15:38:10.998Z,10.60
2023-02-09T16:00:43.960Z,10.40
2023-02-09T16:11:46.911Z,10.30
2023-02-09T16:17:06.195Z,9.90
2023-02-09T16:22:12.040Z,9.70
2023-02-09T18:09:33.222Z,7.10
2023-02-09T18:15:08.496Z,7.00
2023-02-09T18:31:37.839Z,6.40
2023-02-09T18:36:41.159Z,6.20
2023-02-09T18:53:26.255Z,6.00
2023-02-09T18:58:28.843Z,5.90
2023-02-09T19:03:31.072Z,5.80
2023-02-09T19:08:32.906Z,5.70
2023-02-09T19:13:35.512Z,5.50
2023-02-09T19:18:38.360Z,5.50
2023-02-09T19:23:40.363Z,5.50
2023-02-09T19:28:42.268Z,5.50
2023-02-09T19:33:44.199Z,5.50
2023-02-09T19:38:46.128Z,5.40
2023-02-09T19:43:50.624Z,5.30
2023-02-09T19:48:53.893Z,5.30
2023-02-09T19:53:55.903Z,5.20
2023-02-09T19:58:57.785Z,5.20
2023-02-09T20:03:59.603Z,5.20
2023-02-09T20:09:05.227Z,5.20
2023-02-09T20:14:07.174Z,5.20
2023-02-09T20:19:09.324Z,5.10
2023-02-09T20:24:13.476Z,5.10
2023-02-09T20:29:16.801Z,5.10
2023-02-09T20:34:19.068Z,5.00
2023-02-09T20:39:23.421Z,4.90
2023-02-09T20:44:43.933Z,5.00
2023-02-09T20:49:48.608Z,5.00
2023-02-09T20:54:50.538Z,4.90
2023-02-09T20:59:52.405Z,4.80
2023-02-09T21:04:57.685Z,4.60
2023-02-09T21:09:59.855Z,4.60
2023-02-09T21:15:01.723Z,4.50
2023-02-09T21:20:03.899Z,4.60
2023-02-09T21:25:06.081Z,4.60
2023-02-09T21:30:08.847Z,4.50
2023-02-09T21:35:10.964Z,4.50
2023-02-09T21:40:13.947Z,4.50
2023-02-09T21:45:15.979Z,4.40
2023-02-09T21:50:18.019Z,4.30
2023-02-09T21:55:20.346Z,4.20
2023-02-09T22:00:22.286Z,4.30
2023-02-09T22:05:24.530Z,4.20
2023-02-09T22:10:26.482Z,4.10
2023-02-09T22:15:28.340Z,4.10
2023-02-09T22:20:30.207Z,4.00
2023-02-09T22:25:32.131Z,3.90
2023-02-09T22:30:34.191Z,3.90
2023-02-09T22:35:41.077Z,3.90
2023-02-09T22:40:43.156Z,3.80
2023-02-09T22:45:45.401Z,3.80
2023-02-09T22:50:47.575Z,3.70
2023-02-09T22:55:49.787Z,3.70
2023-02-09T23:00:51.731Z,3.70
2023-02-09T23:05:53.851Z,3.80
2023-02-09T23:11:08.543Z,3.80
2023-02-09T23:16:20.140Z,3.80
2023-02-09T23:21:24.500Z,3.90
2023-02-09T23:26:27.335Z,3.70
2023-02-09T23:31:29.724Z,3.50
2023-02-09T23:36:33.996Z,3.50
2023-02-09T23:41:35.969Z,3.40
2023-02-09T23:46:38.739Z,3.40
2023-02-09T23:51:40.700Z,3.30
2023-02-09T23:56:42.597Z,3.30
